sensor_id;sensor_type;location;lat;lon;timestamp;pressure;altitude;pressure_sealevel;temperature;humidity
78299;BME280;67556;55.656;12.590;2023-04-01T00:01:33;100173.09;;;3.85;75.39
78299;BME280;67556;55.656;12.590;2023-04-01T00:04:00;100168.34;;;3.78;75.80
78299;BME280;67556;55.656;12.590;2023-04-01T00:06:27;100170.84;;;3.75;76.21
78299;BME280;67556;55.656;12.590;2023-04-01T00:08:54;100180.38;;;3.73;76.21
78299;BME280;67556;55.656;12.590;2023-04-01T00:11:20;100180.50;;;3.92;75.59
78299;BME280;67556;55.656;12.590;2023-04-01T00:13:47;100180.50;;;3.58;75.42
78299;BME280;67556;55.656;12.590;2023-04-01T00:16:15;100176.03;;;3.57;76.06
78299;BME280;67556;55.656;12.590;2023-04-01T00:18:42;100187.69;;;3.62;76.03
78299;BME280;67556;55.656;12.590;2023-04-01T00:21:08;100168.94;;;3.56;75.78
78299;BME280;67556;55.656;12.590;2023-04-01T00:23:35;100184.41;;;3.66;75.68
78299;BME280;67556;55.656;12.590;2023-04-01T00:26:01;100178.16;;;3.48;76.07
78299;BME280;67556;55.656;12.590;2023-04-01T00:28:28;100197.09;;;3.41;75.99
78299;BME280;67556;55.656;12.590;2023-04-01T00:30:55;100187.97;;;3.34;76.07
78299;BME280;67556;55.656;12.590;2023-04-01T00:33:23;100194.47;;;3.24;76.18
78299;BME280;67556;55.656;12.590;2023-04-01T00:35:49;100190.34;;;3.30;76.51
78299;BME280;67556;55.656;12.590;2023-04-01T00:38:16;100198.97;;;3.27;76.50
78299;BME280;67556;55.656;12.590;2023-04-01T00:40:45;100198.31;;;3.15;76.75
78299;BME280;67556;55.656;12.590;2023-04-01T00:43:13;100207.47;;;3.21;76.04
78299;BME280;67556;55.656;12.590;2023-04-01T00:45:41;100201.44;;;3.24;76.58
78299;BME280;67556;55.656;12.590;2023-04-01T00:48:10;100202.19;;;3.21;77.05
78299;BME280;67556;55.656;12.590;2023-04-01T00:50:40;100207.53;;;3.39;76.21
78299;BME280;67556;55.656;12.590;2023-04-01T00:53:08;100205.56;;;3.35;75.78
78299;BME280;67556;55.656;12.590;2023-04-01T00:55:39;100205.00;;;3.24;75.42
78299;BME280;67556;55.656;12.590;2023-04-01T00:58:09;100208.41;;;3.07;75.81
78299;BME280;67556;55.656;12.590;2023-04-01T01:00:38;100209.00;;;3.18;75.34
78299;BME280;67556;55.656;12.590;2023-04-01T01:03:05;100209.09;;;3.19;75.67
78299;BME280;67556;55.656;12.590;2023-04-01T01:05:42;100208.28;;;3.20;75.84
78299;BME280;67556;55.656;12.590;2023-04-01T01:08:15;100209.19;;;3.21;75.48
78299;BME280;67556;55.656;12.590;2023-04-01T01:10:49;100216.69;;;3.30;74.94
78299;BME280;67556;55.656;12.590;2023-04-01T01:13:17;100202.75;;;3.16;75.21
78299;BME280;67556;55.656;12.590;2023-04-01T01:15:47;100207.22;;;3.17;75.60
78299;BME280;67556;55.656;12.590;2023-04-01T01:18:19;100210.00;;;3.20;74.71
78299;BME280;67556;55.656;12.590;2023-04-01T01:24:20;100222.34;;;3.21;74.37
78299;BME280;67556;55.656;12.590;2023-04-01T01:26:56;100226.78;;;3.22;74.27
78299;BME280;67556;55.656;12.590;2023-04-01T01:29:40;100223.56;;;3.28;74.25
78299;BME280;67556;55.656;12.590;2023-04-01T01:32:18;100228.97;;;3.14;74.82
78299;BME280;67556;55.656;12.590;2023-04-01T01:34:52;100232.28;;;3.27;74.37
78299;BME280;67556;55.656;12.590;2023-04-01T01:37:25;100232.47;;;3.30;73.71
78299;BME280;67556;55.656;12.590;2023-04-01T01:39:56;100231.47;;;3.28;73.91
78299;BME280;67556;55.656;12.590;2023-04-01T01:42:26;100244.63;;;3.28;73.68
78299;BME280;67556;55.656;12.590;2023-04-01T01:44:56;100239.09;;;3.23;73.90
78299;BME280;67556;55.656;12.590;2023-04-01T01:47:25;100240.66;;;3.19;74.71
78299;BME280;67556;55.656;12.590;2023-04-01T01:49:53;100250.22;;;3.17;75.67
78299;BME280;67556;55.656;12.590;2023-04-01T01:52:23;100250.25;;;3.03;74.81
78299;BME280;67556;55.656;12.590;2023-04-01T01:54:50;100245.63;;;2.98;74.97
78299;BME280;67556;55.656;12.590;2023-04-01T01:57:18;100245.19;;;3.22;74.74
78299;BME280;67556;55.656;12.590;2023-04-01T01:59:45;100247.47;;;3.16;74.96
78299;BME280;67556;55.656;12.590;2023-04-01T02:02:15;100257.63;;;3.24;74.76
78299;BME280;67556;55.656;12.590;2023-04-01T02:04:44;100254.56;;;3.17;74.53
78299;BME280;67556;55.656;12.590;2023-04-01T02:07:15;100251.34;;;3.06;74.73
78299;BME280;67556;55.656;12.590;2023-04-01T02:09:44;100255.38;;;3.16;74.11
78299;BME280;67556;55.656;12.590;2023-04-01T02:12:14;100258.75;;;3.13;74.15
78299;BME280;67556;55.656;12.590;2023-04-01T02:14:45;100240.97;;;3.09;74.19
78299;BME280;67556;55.656;12.590;2023-04-01T02:17:15;100249.88;;;3.28;74.25
78299;BME280;67556;55.656;12.590;2023-04-01T02:19:47;100269.31;;;3.30;73.68
78299;BME280;67556;55.656;12.590;2023-04-01T02:22:17;100260.59;;;3.31;73.88
78299;BME280;67556;55.656;12.590;2023-04-01T02:24:47;100265.25;;;3.20;74.55
78299;BME280;67556;55.656;12.590;2023-04-01T02:27:14;100264.19;;;3.33;74.36
78299;BME280;67556;55.656;12.590;2023-04-01T02:29:41;100277.44;;;3.18;74.02
78299;BME280;67556;55.656;12.590;2023-04-01T02:32:08;100260.63;;;2.99;74.51
78299;BME280;67556;55.656;12.590;2023-04-01T02:34:36;100258.94;;;3.16;74.80
78299;BME280;67556;55.656;12.590;2023-04-01T02:37:03;100269.16;;;3.12;73.65
78299;BME280;67556;55.656;12.590;2023-04-01T02:39:30;100263.31;;;3.01;74.62
78299;BME280;67556;55.656;12.590;2023-04-01T02:41:58;100267.28;;;3.09;73.64
78299;BME280;67556;55.656;12.590;2023-04-01T02:44:24;100276.84;;;3.23;73.63
78299;BME280;67556;55.656;12.590;2023-04-01T02:46:51;100271.16;;;3.16;74.04
78299;BME280;67556;55.656;12.590;2023-04-01T02:49:18;100258.09;;;2.86;74.19
78299;BME280;67556;55.656;12.590;2023-04-01T02:51:44;100289.22;;;3.24;73.28
78299;BME280;67556;55.656;12.590;2023-04-01T02:54:11;100277.16;;;3.13;73.50
78299;BME280;67556;55.656;12.590;2023-04-01T02:56:37;100289.22;;;3.24;73.86
78299;BME280;67556;55.656;12.590;2023-04-01T02:59:05;100289.06;;;3.38;73.51
78299;BME280;67556;55.656;12.590;2023-04-01T03:01:31;100286.22;;;3.18;74.08
78299;BME280;67556;55.656;12.590;2023-04-01T03:03:58;100297.97;;;3.09;74.06
78299;BME280;67556;55.656;12.590;2023-04-01T03:06:24;100298.41;;;3.16;73.75
78299;BME280;67556;55.656;12.590;2023-04-01T03:08:51;100297.97;;;3.09;73.89
78299;BME280;67556;55.656;12.590;2023-04-01T03:11:17;100302.47;;;3.11;74.08
78299;BME280;67556;55.656;12.590;2023-04-01T03:13:44;100293.59;;;3.09;73.06
78299;BME280;67556;55.656;12.590;2023-04-01T03:16:12;100305.59;;;3.04;73.51
78299;BME280;67556;55.656;12.590;2023-04-01T03:18:38;100309.97;;;3.04;73.43
78299;BME280;67556;55.656;12.590;2023-04-01T03:21:15;100311.38;;;2.98;73.39
78299;BME280;67556;55.656;12.590;2023-04-01T03:23:42;100319.31;;;2.84;74.09
78299;BME280;67556;55.656;12.590;2023-04-01T03:26:09;100313.31;;;3.01;73.13
78299;BME280;67556;55.656;12.590;2023-04-01T03:28:36;100325.75;;;2.89;74.08
78299;BME280;67556;55.656;12.590;2023-04-01T03:31:03;100318.88;;;2.91;74.28
78299;BME280;67556;55.656;12.590;2023-04-01T03:33:31;100312.47;;;3.02;73.79
78299;BME280;67556;55.656;12.590;2023-04-01T03:35:58;100321.00;;;3.13;73.34
78299;BME280;67556;55.656;12.590;2023-04-01T03:38:25;100304.72;;;2.89;73.70
78299;BME280;67556;55.656;12.590;2023-04-01T03:40:51;100330.03;;;2.87;74.79
78299;BME280;67556;55.656;12.590;2023-04-01T03:43:18;100332.94;;;2.77;74.98
78299;BME280;67556;55.656;12.590;2023-04-01T03:45:45;100339.34;;;2.96;74.20
78299;BME280;67556;55.656;12.590;2023-04-01T03:48:11;100335.56;;;2.91;74.58
78299;BME280;67556;55.656;12.590;2023-04-01T03:50:39;100339.34;;;2.82;74.07
78299;BME280;67556;55.656;12.590;2023-04-01T03:53:06;100353.50;;;2.69;74.56
78299;BME280;67556;55.656;12.590;2023-04-01T03:55:32;100348.06;;;2.81;74.51
78299;BME280;67556;55.656;12.590;2023-04-01T03:57:59;100351.34;;;2.77;75.05
78299;BME280;67556;55.656;12.590;2023-04-01T04:00:27;100361.13;;;2.64;74.87
78299;BME280;67556;55.656;12.590;2023-04-01T04:02:54;100360.59;;;2.70;74.03
78299;BME280;67556;55.656;12.590;2023-04-01T04:05:21;100371.91;;;2.69;74.17
78299;BME280;67556;55.656;12.590;2023-04-01T04:07:51;100364.13;;;2.85;73.32
78299;BME280;67556;55.656;12.590;2023-04-01T04:10:18;100367.56;;;2.69;73.81
78299;BME280;67556;55.656;12.590;2023-04-01T04:12:45;100375.56;;;2.71;73.34
78299;BME280;67556;55.656;12.590;2023-04-01T04:15:11;100379.09;;;2.71;73.93
78299;BME280;67556;55.656;12.590;2023-04-01T04:17:38;100374.19;;;2.78;73.77
78299;BME280;67556;55.656;12.590;2023-04-01T04:20:06;100382.72;;;2.88;73.28
78299;BME280;67556;55.656;12.590;2023-04-01T04:22:33;100390.16;;;2.81;74.28
78299;BME280;67556;55.656;12.590;2023-04-01T04:25:00;100400.66;;;2.81;74.35
78299;BME280;67556;55.656;12.590;2023-04-01T04:27:27;100397.22;;;2.82;74.04
78299;BME280;67556;55.656;12.590;2023-04-01T04:29:53;100402.38;;;2.95;74.09
78299;BME280;67556;55.656;12.590;2023-04-01T04:32:20;100408.56;;;2.66;73.85
78299;BME280;67556;55.656;12.590;2023-04-01T04:34:46;100406.19;;;2.70;74.18
78299;BME280;67556;55.656;12.590;2023-04-01T04:37:13;100407.19;;;2.72;74.19
78299;BME280;67556;55.656;12.590;2023-04-01T04:39:39;100418.22;;;2.52;74.50
78299;BME280;67556;55.656;12.590;2023-04-01T04:42:07;100416.97;;;2.60;73.53
78299;BME280;67556;55.656;12.590;2023-04-01T04:44:34;100414.25;;;2.73;73.94
78299;BME280;67556;55.656;12.590;2023-04-01T04:47:00;100417.91;;;2.75;73.72
78299;BME280;67556;55.656;12.590;2023-04-01T04:49:27;100424.78;;;2.59;73.99
78299;BME280;67556;55.656;12.590;2023-04-01T04:51:53;100429.75;;;2.69;73.92
78299;BME280;67556;55.656;12.590;2023-04-01T04:54:20;100433.47;;;2.72;74.26
78299;BME280;67556;55.656;12.590;2023-04-01T04:56:46;100441.66;;;2.62;74.43
78299;BME280;67556;55.656;12.590;2023-04-01T04:59:14;100432.03;;;2.63;74.20
78299;BME280;67556;55.656;12.590;2023-04-01T05:01:40;100446.97;;;2.64;73.52
78299;BME280;67556;55.656;12.590;2023-04-01T05:04:07;100458.88;;;2.57;73.04
78299;BME280;67556;55.656;12.590;2023-04-01T05:06:33;100440.63;;;2.60;73.59
78299;BME280;67556;55.656;12.590;2023-04-01T05:09:00;100452.50;;;2.68;73.29
78299;BME280;67556;55.656;12.590;2023-04-01T05:11:26;100460.53;;;2.70;73.31
78299;BME280;67556;55.656;12.590;2023-04-01T05:13:52;100458.31;;;2.78;72.75
78299;BME280;67556;55.656;12.590;2023-04-01T05:16:23;100456.50;;;2.77;72.49
78299;BME280;67556;55.656;12.590;2023-04-01T05:18:50;100469.53;;;2.60;72.72
78299;BME280;67556;55.656;12.590;2023-04-01T05:21:18;100470.50;;;2.75;72.19
78299;BME280;67556;55.656;12.590;2023-04-01T05:23:45;100471.38;;;2.61;72.19
78299;BME280;67556;55.656;12.590;2023-04-01T05:26:13;100469.59;;;2.75;72.01
78299;BME280;67556;55.656;12.590;2023-04-01T05:28:40;100484.25;;;2.71;73.04
78299;BME280;67556;55.656;12.590;2023-04-01T05:31:08;100476.94;;;2.81;72.99
78299;BME280;67556;55.656;12.590;2023-04-01T05:33:36;100474.50;;;2.84;73.03
78299;BME280;67556;55.656;12.590;2023-04-01T05:36:07;100482.81;;;2.77;72.71
78299;BME280;67556;55.656;12.590;2023-04-01T05:38:34;100489.59;;;2.73;72.54
78299;BME280;67556;55.656;12.590;2023-04-01T05:41:01;100491.88;;;2.67;73.61
78299;BME280;67556;55.656;12.590;2023-04-01T05:43:28;100480.19;;;2.77;73.34
78299;BME280;67556;55.656;12.590;2023-04-01T05:45:56;100490.97;;;2.81;73.16
78299;BME280;67556;55.656;12.590;2023-04-01T05:48:22;100493.75;;;2.69;73.27
78299;BME280;67556;55.656;12.590;2023-04-01T05:50:50;100500.19;;;2.60;72.89
78299;BME280;67556;55.656;12.590;2023-04-01T05:53:17;100502.00;;;2.61;73.02
78299;BME280;67556;55.656;12.590;2023-04-01T05:55:43;100498.66;;;2.63;72.61
78299;BME280;67556;55.656;12.590;2023-04-01T05:58:10;100505.66;;;2.78;72.51
78299;BME280;67556;55.656;12.590;2023-04-01T06:00:37;100506.25;;;2.59;72.35
78299;BME280;67556;55.656;12.590;2023-04-01T06:03:03;100508.00;;;2.58;71.51
78299;BME280;67556;55.656;12.590;2023-04-01T06:05:35;100505.59;;;2.48;71.75
78299;BME280;67556;55.656;12.590;2023-04-01T06:08:10;100516.88;;;2.60;72.15
78299;BME280;67556;55.656;12.590;2023-04-01T06:10:48;100523.47;;;2.54;71.58
78299;BME280;67556;55.656;12.590;2023-04-01T06:13:26;100524.75;;;2.60;71.86
78299;BME280;67556;55.656;12.590;2023-04-01T06:16:04;100522.09;;;2.45;72.72
78299;BME280;67556;55.656;12.590;2023-04-01T06:18:43;100530.88;;;2.46;72.55
78299;BME280;67556;55.656;12.590;2023-04-01T06:21:34;100518.72;;;2.48;72.06
78299;BME280;67556;55.656;12.590;2023-04-01T06:24:15;100543.09;;;2.73;71.22
78299;BME280;67556;55.656;12.590;2023-04-01T06:26:55;100535.03;;;2.70;70.32
78299;BME280;67556;55.656;12.590;2023-04-01T06:29:47;100537.38;;;2.66;69.81
78299;BME280;67556;55.656;12.590;2023-04-01T06:32:24;100539.19;;;2.67;69.67
78299;BME280;67556;55.656;12.590;2023-04-01T06:35:05;100520.84;;;2.54;69.52
78299;BME280;67556;55.656;12.590;2023-04-01T06:37:56;100539.13;;;2.52;69.56
78299;BME280;67556;55.656;12.590;2023-04-01T06:43:27;100548.81;;;2.66;69.61
78299;BME280;67556;55.656;12.590;2023-04-01T06:46:04;100552.81;;;2.74;68.98
78299;BME280;67556;55.656;12.590;2023-04-01T06:48:50;100555.19;;;2.70;68.74
78299;BME280;67556;55.656;12.590;2023-04-01T06:51:25;100556.50;;;2.63;66.54
78299;BME280;67556;55.656;12.590;2023-04-01T06:54:00;100559.47;;;2.83;66.26
78299;BME280;67556;55.656;12.590;2023-04-01T06:56:32;100562.88;;;2.82;66.58
78299;BME280;67556;55.656;12.590;2023-04-01T06:59:03;100569.16;;;2.84;66.38
78299;BME280;67556;55.656;12.590;2023-04-01T07:01:35;100573.75;;;3.01;66.08
78299;BME280;67556;55.656;12.590;2023-04-01T07:04:08;100574.84;;;3.05;65.10
78299;BME280;67556;55.656;12.590;2023-04-01T07:06:37;100569.03;;;2.95;65.13
78299;BME280;67556;55.656;12.590;2023-04-01T07:09:09;100581.22;;;3.08;66.00
78299;BME280;67556;55.656;12.590;2023-04-01T07:11:38;100579.16;;;2.89;65.08
78299;BME280;67556;55.656;12.590;2023-04-01T07:14:12;100580.06;;;2.90;64.93
78299;BME280;67556;55.656;12.590;2023-04-01T07:16:44;100576.53;;;2.61;64.34
78299;BME280;67556;55.656;12.590;2023-04-01T07:19:18;100572.22;;;2.77;64.39
78299;BME280;67556;55.656;12.590;2023-04-01T07:21:51;100586.03;;;2.59;63.97
78299;BME280;67556;55.656;12.590;2023-04-01T07:24:24;100592.16;;;2.73;63.40
78299;BME280;67556;55.656;12.590;2023-04-01T07:26:55;100591.81;;;2.82;63.00
78299;BME280;67556;55.656;12.590;2023-04-01T07:29:26;100591.72;;;2.80;63.13
78299;BME280;67556;55.656;12.590;2023-04-01T07:32:09;100606.22;;;2.73;64.01
78299;BME280;67556;55.656;12.590;2023-04-01T07:34:49;100604.25;;;2.84;62.91
78299;BME280;67556;55.656;12.590;2023-04-01T07:37:22;100611.25;;;2.84;62.69
78299;BME280;67556;55.656;12.590;2023-04-01T07:40:00;100620.06;;;2.99;61.59
78299;BME280;67556;55.656;12.590;2023-04-01T07:42:39;100624.81;;;2.77;62.10
78299;BME280;67556;55.656;12.590;2023-04-01T07:45:17;100616.03;;;3.04;62.33
78299;BME280;67556;55.656;12.590;2023-04-01T07:48:00;100615.97;;;2.89;61.16
78299;BME280;67556;55.656;12.590;2023-04-01T07:50:40;100623.03;;;2.90;60.70
78299;BME280;67556;55.656;12.590;2023-04-01T07:53:17;100620.53;;;2.92;61.04
78299;BME280;67556;55.656;12.590;2023-04-01T07:55:51;100630.47;;;2.83;60.44
78299;BME280;67556;55.656;12.590;2023-04-01T07:58:29;100628.72;;;2.96;61.28
78299;BME280;67556;55.656;12.590;2023-04-01T08:01:06;100643.00;;;2.87;61.03
78299;BME280;67556;55.656;12.590;2023-04-01T08:03:48;100638.31;;;2.96;61.09
78299;BME280;67556;55.656;12.590;2023-04-01T08:06:20;100645.63;;;3.15;60.45
78299;BME280;67556;55.656;12.590;2023-04-01T08:08:59;100649.69;;;3.10;60.06
78299;BME280;67556;55.656;12.590;2023-04-01T08:11:40;100648.50;;;3.05;59.72
78299;BME280;67556;55.656;12.590;2023-04-01T08:14:19;100656.97;;;3.14;59.40
78299;BME280;67556;55.656;12.590;2023-04-01T08:16:56;100663.28;;;3.03;59.74
78299;BME280;67556;55.656;12.590;2023-04-01T08:19:34;100661.88;;;2.94;59.42
78299;BME280;67556;55.656;12.590;2023-04-01T08:22:10;100669.03;;;3.10;59.12
78299;BME280;67556;55.656;12.590;2023-04-01T08:24:42;100663.75;;;3.10;58.34
78299;BME280;67556;55.656;12.590;2023-04-01T08:27:15;100660.69;;;3.17;57.64
78299;BME280;67556;55.656;12.590;2023-04-01T08:29:49;100665.44;;;3.23;57.99
78299;BME280;67556;55.656;12.590;2023-04-01T08:32:23;100672.00;;;3.30;58.39
78299;BME280;67556;55.656;12.590;2023-04-01T08:35:01;100682.88;;;3.36;57.58
78299;BME280;67556;55.656;12.590;2023-04-01T08:37:35;100683.28;;;3.42;56.85
78299;BME280;67556;55.656;12.590;2023-04-01T08:40:39;100687.28;;;3.50;57.13
78299;BME280;67556;55.656;12.590;2023-04-01T08:43:11;100689.81;;;3.48;56.34
78299;BME280;67556;55.656;12.590;2023-04-01T08:46:04;100691.66;;;3.64;55.52
78299;BME280;67556;55.656;12.590;2023-04-01T08:48:48;100700.16;;;3.45;55.62
78299;BME280;67556;55.656;12.590;2023-04-01T08:51:50;100694.25;;;3.49;55.63
78299;BME280;67556;55.656;12.590;2023-04-01T08:54:43;100703.56;;;3.72;55.82
78299;BME280;67556;55.656;12.590;2023-04-01T08:57:16;100709.22;;;3.93;56.30
78299;BME280;67556;55.656;12.590;2023-04-01T08:59:56;100710.03;;;4.07;55.59
78299;BME280;67556;55.656;12.590;2023-04-01T09:02:46;100714.13;;;4.02;55.68
78299;BME280;67556;55.656;12.590;2023-04-01T09:05:35;100713.84;;;3.83;54.99
78299;BME280;67556;55.656;12.590;2023-04-01T09:08:15;100720.75;;;3.81;55.07
78299;BME280;67556;55.656;12.590;2023-04-01T09:11:07;100729.31;;;4.06;54.43
78299;BME280;67556;55.656;12.590;2023-04-01T09:13:50;100726.38;;;3.87;55.22
78299;BME280;67556;55.656;12.590;2023-04-01T09:16:29;100732.47;;;3.86;55.06
78299;BME280;67556;55.656;12.590;2023-04-01T09:19:24;100735.94;;;3.99;54.37
78299;BME280;67556;55.656;12.590;2023-04-01T09:22:05;100736.13;;;4.03;55.53
78299;BME280;67556;55.656;12.590;2023-04-01T09:25:06;100744.31;;;4.07;54.64
78299;BME280;67556;55.656;12.590;2023-04-01T09:27:45;100746.66;;;3.88;53.80
78299;BME280;67556;55.656;12.590;2023-04-01T09:30:32;100746.66;;;3.88;52.75
78299;BME280;67556;55.656;12.590;2023-04-01T09:36:29;100763.38;;;4.03;52.11
78299;BME280;67556;55.656;12.590;2023-04-01T09:39:06;100724.75;;;4.04;52.23
78299;BME280;67556;55.656;12.590;2023-04-01T09:41:47;100754.84;;;4.07;52.05
78299;BME280;67556;55.656;12.590;2023-04-01T09:44:26;100760.94;;;4.21;51.05
78299;BME280;67556;55.656;12.590;2023-04-01T09:47:04;100767.94;;;4.20;50.80
78299;BME280;67556;55.656;12.590;2023-04-01T09:49:47;100776.13;;;4.25;50.43
78299;BME280;67556;55.656;12.590;2023-04-01T09:52:27;100779.03;;;4.44;51.19
78299;BME280;67556;55.656;12.590;2023-04-01T09:55:06;100790.41;;;4.43;51.37
78299;BME280;67556;55.656;12.590;2023-04-01T10:01:05;100777.56;;;4.49;50.13
78299;BME280;67556;55.656;12.590;2023-04-01T10:04:12;100786.50;;;4.52;50.18
78299;BME280;67556;55.656;12.590;2023-04-01T10:07:08;100781.19;;;4.66;50.02
78299;BME280;67556;55.656;12.590;2023-04-01T10:13:24;100783.31;;;4.72;48.97
78299;BME280;67556;55.656;12.590;2023-04-01T10:16:14;100790.16;;;4.99;50.12
78299;BME280;67556;55.656;12.590;2023-04-01T10:19:16;100789.31;;;5.00;49.12
78299;BME280;67556;55.656;12.590;2023-04-01T10:22:00;100790.59;;;5.07;48.96
78299;BME280;67556;55.656;12.590;2023-04-01T10:24:46;100788.66;;;5.05;48.91
78299;BME280;67556;55.656;12.590;2023-04-01T10:27:33;100786.50;;;5.29;49.21
78299;BME280;67556;55.656;12.590;2023-04-01T10:30:33;100795.94;;;5.09;48.24
78299;BME280;67556;55.656;12.590;2023-04-01T10:39:20;100808.19;;;5.54;48.56
78299;BME280;67556;55.656;12.590;2023-04-01T10:42:19;100810.22;;;5.43;49.21
78299;BME280;67556;55.656;12.590;2023-04-01T10:51:16;100809.75;;;5.67;48.03
78299;BME280;67556;55.656;12.590;2023-04-01T10:54:05;100806.06;;;5.80;46.82
78299;BME280;67556;55.656;12.590;2023-04-01T10:56:49;100816.03;;;5.85;47.07
78299;BME280;67556;55.656;12.590;2023-04-01T10:59:23;100814.91;;;5.96;47.50
78299;BME280;67556;55.656;12.590;2023-04-01T11:05:26;100814.25;;;6.17;48.25
78299;BME280;67556;55.656;12.590;2023-04-01T11:08:27;100814.69;;;5.92;47.17
78299;BME280;67556;55.656;12.590;2023-04-01T11:11:16;100813.19;;;5.97;46.72
78299;BME280;67556;55.656;12.590;2023-04-01T11:14:24;100815.88;;;6.15;46.46
78299;BME280;67556;55.656;12.590;2023-04-01T11:17:27;100816.53;;;6.27;47.32
78299;BME280;67556;55.656;12.590;2023-04-01T11:20:13;100825.94;;;6.38;46.07
78299;BME280;67556;55.656;12.590;2023-04-01T11:22:53;100832.97;;;6.38;43.13
78299;BME280;67556;55.656;12.590;2023-04-01T11:25:58;100836.44;;;6.53;45.80
78299;BME280;67556;55.656;12.590;2023-04-01T11:28:46;100846.66;;;6.63;44.36
78299;BME280;67556;55.656;12.590;2023-04-01T11:34:37;100838.00;;;7.19;42.70
78299;BME280;67556;55.656;12.590;2023-04-01T11:37:19;100842.06;;;6.95;42.39
78299;BME280;67556;55.656;12.590;2023-04-01T11:39:59;100845.66;;;6.61;43.00
78299;BME280;67556;55.656;12.590;2023-04-01T11:42:40;100848.97;;;6.57;43.22
78299;BME280;67556;55.656;12.590;2023-04-01T11:45:19;100843.41;;;6.87;43.58
78299;BME280;67556;55.656;12.590;2023-04-01T11:48:12;100843.59;;;6.90;42.95
78299;BME280;67556;55.656;12.590;2023-04-01T11:50:53;100851.53;;;6.90;42.88
78299;BME280;67556;55.656;12.590;2023-04-01T11:53:34;100848.31;;;7.13;43.60
78299;BME280;67556;55.656;12.590;2023-04-01T11:56:33;100850.50;;;7.22;41.24
78299;BME280;67556;55.656;12.590;2023-04-01T11:59:20;100844.66;;;7.11;40.95
78299;BME280;67556;55.656;12.590;2023-04-01T12:01:59;100846.47;;;7.30;42.70
78299;BME280;67556;55.656;12.590;2023-04-01T12:04:54;100858.19;;;7.53;43.15
78299;BME280;67556;55.656;12.590;2023-04-01T12:07:32;100859.78;;;7.87;42.81
78299;BME280;67556;55.656;12.590;2023-04-01T12:10:15;100863.53;;;7.72;39.05
78299;BME280;67556;55.656;12.590;2023-04-01T12:12:49;100863.00;;;7.99;41.17
78299;BME280;67556;55.656;12.590;2023-04-01T12:15:23;100862.47;;;8.06;42.19
78299;BME280;67556;55.656;12.590;2023-04-01T12:17:56;100864.97;;;8.22;41.76
78299;BME280;67556;55.656;12.590;2023-04-01T12:20:38;100880.41;;;8.50;39.54
78299;BME280;67556;55.656;12.590;2023-04-01T12:26:29;100876.56;;;8.24;39.69
78299;BME280;67556;55.656;12.590;2023-04-01T12:29:15;100876.47;;;8.81;40.94
78299;BME280;67556;55.656;12.590;2023-04-01T12:31:52;100881.47;;;8.54;39.69
78299;BME280;67556;55.656;12.590;2023-04-01T12:34:40;100880.09;;;8.83;37.56
78299;BME280;67556;55.656;12.590;2023-04-01T12:37:17;100880.28;;;8.88;38.89
78299;BME280;67556;55.656;12.590;2023-04-01T12:40:14;100888.09;;;9.27;39.49
78299;BME280;67556;55.656;12.590;2023-04-01T12:42:55;100894.75;;;9.36;37.29
78299;BME280;67556;55.656;12.590;2023-04-01T12:45:30;100891.59;;;9.46;35.69
78299;BME280;67556;55.656;12.590;2023-04-01T12:51:21;100897.06;;;9.72;36.09
78299;BME280;67556;55.656;12.590;2023-04-01T12:54:17;100895.94;;;9.88;36.79
78299;BME280;67556;55.656;12.590;2023-04-01T12:56:57;100899.31;;;9.84;34.50
78299;BME280;67556;55.656;12.590;2023-04-01T12:59:47;100897.50;;;10.05;35.47
78299;BME280;67556;55.656;12.590;2023-04-01T13:02:30;100888.31;;;10.67;35.05
78299;BME280;67556;55.656;12.590;2023-04-01T13:05:21;100901.84;;;10.99;34.15
78299;BME280;67556;55.656;12.590;2023-04-01T13:08:06;100906.00;;;11.16;32.73
78299;BME280;67556;55.656;12.590;2023-04-01T13:10:51;100908.03;;;10.98;32.75
78299;BME280;67556;55.656;12.590;2023-04-01T13:13:33;100906.16;;;11.46;32.55
78299;BME280;67556;55.656;12.590;2023-04-01T13:16:08;100909.03;;;11.00;30.49
78299;BME280;67556;55.656;12.590;2023-04-01T13:18:49;100907.00;;;11.45;32.22
78299;BME280;67556;55.656;12.590;2023-04-01T13:21:28;100915.03;;;11.20;32.46
78299;BME280;67556;55.656;12.590;2023-04-01T13:24:03;100910.81;;;11.27;32.06
78299;BME280;67556;55.656;12.590;2023-04-01T13:26:37;100916.22;;;11.55;32.11
78299;BME280;67556;55.656;12.590;2023-04-01T13:29:13;100919.94;;;11.87;32.08
78299;BME280;67556;55.656;12.590;2023-04-01T13:31:51;100923.00;;;11.99;31.63
78299;BME280;67556;55.656;12.590;2023-04-01T13:34:32;100926.81;;;12.36;31.73
78299;BME280;67556;55.656;12.590;2023-04-01T13:37:11;100932.66;;;12.85;31.55
78299;BME280;67556;55.656;12.590;2023-04-01T13:39:53;100935.78;;;13.02;29.24
78299;BME280;67556;55.656;12.590;2023-04-01T13:42:26;100930.13;;;13.22;28.87
78299;BME280;67556;55.656;12.590;2023-04-01T13:44:56;100936.00;;;13.09;27.98
78299;BME280;67556;55.656;12.590;2023-04-01T13:53:46;100951.16;;;13.10;28.81
78299;BME280;67556;55.656;12.590;2023-04-01T13:56:34;100948.53;;;13.43;28.24
78299;BME280;67556;55.656;12.590;2023-04-01T14:02:04;100955.75;;;13.46;28.07
78299;BME280;67556;55.656;12.590;2023-04-01T14:04:47;100956.09;;;13.96;27.12
78299;BME280;67556;55.656;12.590;2023-04-01T14:07:31;100963.06;;;13.53;27.94
78299;BME280;67556;55.656;12.590;2023-04-01T14:10:12;100956.00;;;14.31;26.38
78299;BME280;67556;55.656;12.590;2023-04-01T14:12:51;100961.72;;;14.88;26.88
78299;BME280;67556;55.656;12.590;2023-04-01T14:15:31;100962.75;;;14.95;25.43
78299;BME280;67556;55.656;12.590;2023-04-01T14:18:20;100970.47;;;14.00;25.86
78299;BME280;67556;55.656;12.590;2023-04-01T14:20:53;100964.09;;;14.75;25.94
78299;BME280;67556;55.656;12.590;2023-04-01T14:23:40;100958.56;;;14.65;25.81